sensor_id;sensor_type;location;lat;lon;timestamp;P1;durP1;ratioP1;P2;durP2;ratioP2
70369;SDS011;57790;51.356;-2.906;2023-07-08T00:00:35;8.67;;;3.30;;
70369;SDS011;57790;51.356;-2.906;2023-07-08T00:03:35;8.33;;;3.30;;
70369;SDS011;57790;51.356;-2.906;2023-07-08T00:06:35;8.87;;;3.27;;
70369;SDS011;57790;51.356;-2.906;2023-07-08T00:09:36;8.90;;;3.40;;
70369;SDS011;57790;51.356;-2.906;2023-07-08T00:12:36;9.07;;;3.40;;
70369;SDS011;57790;51.356;-2.906;2023-07-08T00:15:37;8.90;;;3.20;;
70369;SDS011;57790;51.356;-2.906;2023-07-08T00:18:38;8.40;;;3.17;;
70369;SDS011;57790;51.356;-2.906;2023-07-08T00:21:39;10.70;;;3.60;;
70369;SDS011;57790;51.356;-2.906;2023-07-08T00:24:41;8.27;;;3.07;;
70369;SDS011;57790;51.356;-2.906;2023-07-08T00:27:42;8.60;;;3.22;;
70369;SDS011;57790;51.356;-2.906;2023-07-08T00:30:43;8.45;;;3.25;;
70369;SDS011;57790;51.356;-2.906;2023-07-08T00:33:44;8.33;;;3.20;;
70369;SDS011;57790;51.356;-2.906;2023-07-08T00:36:44;9.30;;;3.30;;
70369;SDS011;57790;51.356;-2.906;2023-07-08T00:39:44;10.30;;;3.73;;
70369;SDS011;57790;51.356;-2.906;2023-07-08T00:42:45;8.63;;;3.25;;
70369;SDS011;57790;51.356;-2.906;2023-07-08T00:45:47;9.32;;;3.53;;
70369;SDS011;57790;51.356;-2.906;2023-07-08T00:48:49;8.13;;;3.03;;
70369;SDS011;57790;51.356;-2.906;2023-07-08T00:51:52;8.63;;;3.33;;
70369;SDS011;57790;51.356;-2.906;2023-07-08T00:54:54;7.87;;;3.20;;
70369;SDS011;57790;51.356;-2.906;2023-07-08T00:57:58;8.07;;;3.17;;
70369;SDS011;57790;51.356;-2.906;2023-07-08T01:00:58;9.27;;;3.60;;
70369;SDS011;57790;51.356;-2.906;2023-07-08T01:04:02;9.25;;;3.53;;
70369;SDS011;57790;51.356;-2.906;2023-07-08T01:07:11;8.63;;;3.40;;
70369;SDS011;57790;51.356;-2.906;2023-07-08T01:10:16;8.70;;;3.20;;
70369;SDS011;57790;51.356;-2.906;2023-07-08T01:13:22;9.50;;;3.50;;
70369;SDS011;57790;51.356;-2.906;2023-07-08T01:16:23;9.05;;;3.05;;
70369;SDS011;57790;51.356;-2.906;2023-07-08T01:19:24;9.13;;;3.40;;
70369;SDS011;57790;51.356;-2.906;2023-07-08T01:22:35;9.00;;;3.42;;
70369;SDS011;57790;51.356;-2.906;2023-07-08T01:25:37;7.75;;;3.10;;
70369;SDS011;57790;51.356;-2.906;2023-07-08T01:28:37;7.93;;;3.13;;
70369;SDS011;57790;51.356;-2.906;2023-07-08T01:31:38;8.40;;;3.50;;
70369;SDS011;57790;51.356;-2.906;2023-07-08T01:34:39;8.50;;;3.20;;
70369;SDS011;57790;51.356;-2.906;2023-07-08T01:37:41;7.57;;;3.10;;
70369;SDS011;57790;51.356;-2.906;2023-07-08T01:40:48;8.10;;;3.00;;
70369;SDS011;57790;51.356;-2.906;2023-07-08T01:43:51;8.77;;;3.30;;
70369;SDS011;57790;51.356;-2.906;2023-07-08T01:46:51;7.65;;;2.95;;
70369;SDS011;57790;51.356;-2.906;2023-07-08T01:49:54;8.73;;;3.20;;
70369;SDS011;57790;51.356;-2.906;2023-07-08T01:52:56;8.93;;;3.00;;
70369;SDS011;57790;51.356;-2.906;2023-07-08T01:55:58;9.60;;;3.20;;
70369;SDS011;57790;51.356;-2.906;2023-07-08T01:58:59;9.10;;;3.30;;
70369;SDS011;57790;51.356;-2.906;2023-07-08T02:02:00;10.07;;;3.20;;
70369;SDS011;57790;51.356;-2.906;2023-07-08T02:05:01;8.80;;;3.30;;
70369;SDS011;57790;51.356;-2.906;2023-07-08T02:08:01;8.30;;;3.17;;
70369;SDS011;57790;51.356;-2.906;2023-07-08T02:11:01;8.63;;;3.00;;
70369;SDS011;57790;51.356;-2.906;2023-07-08T02:14:02;8.32;;;3.10;;
70369;SDS011;57790;51.356;-2.906;2023-07-08T02:17:03;8.15;;;3.28;;
70369;SDS011;57790;51.356;-2.906;2023-07-08T02:20:05;9.10;;;3.57;;
70369;SDS011;57790;51.356;-2.906;2023-07-08T02:23:07;7.35;;;2.85;;
70369;SDS011;57790;51.356;-2.906;2023-07-08T02:26:08;8.30;;;3.00;;
70369;SDS011;57790;51.356;-2.906;2023-07-08T02:29:08;9.95;;;3.30;;
70369;SDS011;57790;51.356;-2.906;2023-07-08T02:32:09;7.97;;;2.73;;
70369;SDS011;57790;51.356;-2.906;2023-07-08T02:35:09;9.02;;;2.80;;
70369;SDS011;57790;51.356;-2.906;2023-07-08T02:38:10;8.20;;;2.77;;
70369;SDS011;57790;51.356;-2.906;2023-07-08T02:41:10;9.90;;;3.13;;
70369;SDS011;57790;51.356;-2.906;2023-07-08T02:44:11;9.43;;;3.38;;
70369;SDS011;57790;51.356;-2.906;2023-07-08T02:47:11;8.67;;;3.60;;
70369;SDS011;57790;51.356;-2.906;2023-07-08T02:50:12;11.83;;;3.67;;
70369;SDS011;57790;51.356;-2.906;2023-07-08T02:53:13;10.35;;;3.55;;
70369;SDS011;57790;51.356;-2.906;2023-07-08T02:56:13;10.23;;;3.47;;
70369;SDS011;57790;51.356;-2.906;2023-07-08T02:59:13;9.93;;;3.40;;
70369;SDS011;57790;51.356;-2.906;2023-07-08T03:02:14;11.13;;;3.60;;
70369;SDS011;57790;51.356;-2.906;2023-07-08T03:05:14;11.67;;;3.40;;
70369;SDS011;57790;51.356;-2.906;2023-07-08T03:08:15;8.45;;;3.30;;
70369;SDS011;57790;51.356;-2.906;2023-07-08T03:11:15;10.73;;;3.50;;
70369;SDS011;57790;51.356;-2.906;2023-07-08T03:14:15;8.37;;;3.33;;
70369;SDS011;57790;51.356;-2.906;2023-07-08T03:17:16;8.73;;;3.60;;
70369;SDS011;57790;51.356;-2.906;2023-07-08T03:20:17;9.98;;;3.15;;
70369;SDS011;57790;51.356;-2.906;2023-07-08T03:23:18;9.23;;;3.43;;
70369;SDS011;57790;51.356;-2.906;2023-07-08T03:26:24;9.70;;;3.72;;
70369;SDS011;57790;51.356;-2.906;2023-07-08T03:29:26;10.90;;;3.67;;
70369;SDS011;57790;51.356;-2.906;2023-07-08T03:32:27;9.77;;;3.27;;
70369;SDS011;57790;51.356;-2.906;2023-07-08T03:35:27;9.87;;;3.50;;
70369;SDS011;57790;51.356;-2.906;2023-07-08T03:38:27;10.00;;;3.47;;
70369;SDS011;57790;51.356;-2.906;2023-07-08T03:41:28;8.10;;;3.10;;
70369;SDS011;57790;51.356;-2.906;2023-07-08T03:44:28;10.23;;;3.17;;
70369;SDS011;57790;51.356;-2.906;2023-07-08T03:47:29;9.70;;;3.33;;
70369;SDS011;57790;51.356;-2.906;2023-07-08T03:50:29;8.70;;;3.23;;
70369;SDS011;57790;51.356;-2.906;2023-07-08T03:53:29;9.03;;;3.20;;
70369;SDS011;57790;51.356;-2.906;2023-07-08T03:56:30;10.40;;;3.10;;
70369;SDS011;57790;51.356;-2.906;2023-07-08T03:59:30;9.97;;;3.33;;
70369;SDS011;57790;51.356;-2.906;2023-07-08T04:02:31;8.20;;;3.27;;
70369;SDS011;57790;51.356;-2.906;2023-07-08T04:05:31;9.20;;;3.43;;
70369;SDS011;57790;51.356;-2.906;2023-07-08T04:08:31;9.57;;;3.43;;
70369;SDS011;57790;51.356;-2.906;2023-07-08T04:11:32;8.57;;;3.20;;
70369;SDS011;57790;51.356;-2.906;2023-07-08T04:14:33;9.73;;;3.25;;
70369;SDS011;57790;51.356;-2.906;2023-07-08T04:17:40;8.40;;;2.80;;
70369;SDS011;57790;51.356;-2.906;2023-07-08T04:20:43;9.20;;;3.60;;
70369;SDS011;57790;51.356;-2.906;2023-07-08T04:23:43;10.00;;;3.10;;
70369;SDS011;57790;51.356;-2.906;2023-07-08T04:26:45;9.30;;;3.03;;
70369;SDS011;57790;51.356;-2.906;2023-07-08T04:29:48;8.40;;;3.10;;
70369;SDS011;57790;51.356;-2.906;2023-07-08T04:32:49;9.40;;;2.70;;
70369;SDS011;57790;51.356;-2.906;2023-07-08T04:35:50;8.55;;;2.97;;
70369;SDS011;57790;51.356;-2.906;2023-07-08T04:38:51;10.17;;;3.10;;
70369;SDS011;57790;51.356;-2.906;2023-07-08T04:41:51;12.07;;;3.43;;
70369;SDS011;57790;51.356;-2.906;2023-07-08T04:44:51;8.67;;;3.07;;
70369;SDS011;57790;51.356;-2.906;2023-07-08T04:47:53;9.93;;;3.00;;
70369;SDS011;57790;51.356;-2.906;2023-07-08T04:50:53;9.37;;;3.53;;
70369;SDS011;57790;51.356;-2.906;2023-07-08T04:53:53;8.53;;;3.13;;
70369;SDS011;57790;51.356;-2.906;2023-07-08T04:56:54;9.90;;;3.30;;
70369;SDS011;57790;51.356;-2.906;2023-07-08T04:59:54;9.20;;;3.60;;
70369;SDS011;57790;51.356;-2.906;2023-07-08T05:02:55;10.23;;;3.10;;
70369;SDS011;57790;51.356;-2.906;2023-07-08T05:05:56;8.90;;;2.90;;
70369;SDS011;57790;51.356;-2.906;2023-07-08T05:08:57;10.27;;;2.88;;
70369;SDS011;57790;51.356;-2.906;2023-07-08T05:11:58;8.77;;;2.77;;
70369;SDS011;57790;51.356;-2.906;2023-07-08T05:14:59;10.63;;;2.80;;
70369;SDS011;57790;51.356;-2.906;2023-07-08T05:17:59;9.07;;;2.93;;
70369;SDS011;57790;51.356;-2.906;2023-07-08T05:20:59;8.60;;;2.83;;
70369;SDS011;57790;51.356;-2.906;2023-07-08T05:24:04;8.43;;;3.10;;
70369;SDS011;57790;51.356;-2.906;2023-07-08T05:27:05;9.55;;;2.90;;
70369;SDS011;57790;51.356;-2.906;2023-07-08T05:30:06;8.77;;;2.80;;
70369;SDS011;57790;51.356;-2.906;2023-07-08T05:33:14;8.80;;;2.65;;
70369;SDS011;57790;51.356;-2.906;2023-07-08T05:36:14;11.33;;;3.03;;
70369;SDS011;57790;51.356;-2.906;2023-07-08T05:39:15;8.17;;;2.60;;
70369;SDS011;57790;51.356;-2.906;2023-07-08T05:42:15;8.60;;;2.70;;
70369;SDS011;57790;51.356;-2.906;2023-07-08T05:45:16;10.07;;;2.85;;
70369;SDS011;57790;51.356;-2.906;2023-07-08T05:48:16;9.50;;;2.43;;
70369;SDS011;57790;51.356;-2.906;2023-07-08T05:51:16;8.40;;;2.53;;
70369;SDS011;57790;51.356;-2.906;2023-07-08T05:54:17;8.53;;;2.77;;
70369;SDS011;57790;51.356;-2.906;2023-07-08T05:57:20;9.27;;;3.00;;
70369;SDS011;57790;51.356;-2.906;2023-07-08T06:00:23;8.32;;;2.72;;
70369;SDS011;57790;51.356;-2.906;2023-07-08T06:03:24;9.67;;;3.30;;
70369;SDS011;57790;51.356;-2.906;2023-07-08T06:06:25;8.50;;;2.53;;
70369;SDS011;57790;51.356;-2.906;2023-07-08T06:09:26;9.40;;;2.53;;
70369;SDS011;57790;51.356;-2.906;2023-07-08T06:12:27;8.63;;;2.70;;
70369;SDS011;57790;51.356;-2.906;2023-07-08T06:15:27;9.35;;;3.28;;
70369;SDS011;57790;51.356;-2.906;2023-07-08T06:18:28;9.97;;;2.63;;
70369;SDS011;57790;51.356;-2.906;2023-07-08T06:21:28;7.77;;;2.43;;
70369;SDS011;57790;51.356;-2.906;2023-07-08T06:24:29;8.30;;;2.40;;
70369;SDS011;57790;51.356;-2.906;2023-07-08T06:27:29;7.40;;;2.30;;
70369;SDS011;57790;51.356;-2.906;2023-07-08T06:30:31;7.90;;;2.63;;
70369;SDS011;57790;51.356;-2.906;2023-07-08T06:33:31;8.97;;;2.60;;
70369;SDS011;57790;51.356;-2.906;2023-07-08T06:36:32;9.13;;;2.50;;
70369;SDS011;57790;51.356;-2.906;2023-07-08T06:39:32;8.50;;;2.30;;
70369;SDS011;57790;51.356;-2.906;2023-07-08T06:42:33;9.90;;;2.50;;
70369;SDS011;57790;51.356;-2.906;2023-07-08T06:45:33;7.50;;;2.30;;
70369;SDS011;57790;51.356;-2.906;2023-07-08T06:48:34;9.55;;;2.10;;
70369;SDS011;57790;51.356;-2.906;2023-07-08T06:51:34;8.67;;;2.57;;
70369;SDS011;57790;51.356;-2.906;2023-07-08T06:54:35;6.77;;;2.30;;
70369;SDS011;57790;51.356;-2.906;2023-07-08T06:57:36;7.43;;;2.30;;
70369;SDS011;57790;51.356;-2.906;2023-07-08T07:00:41;9.57;;;2.73;;
70369;SDS011;57790;51.356;-2.906;2023-07-08T07:03:43;8.48;;;2.50;;
70369;SDS011;57790;51.356;-2.906;2023-07-08T07:06:43;8.23;;;2.20;;
70369;SDS011;57790;51.356;-2.906;2023-07-08T07:09:44;7.60;;;2.10;;
70369;SDS011;57790;51.356;-2.906;2023-07-08T07:12:44;9.73;;;2.33;;
70369;SDS011;57790;51.356;-2.906;2023-07-08T07:15:45;8.88;;;2.30;;
70369;SDS011;57790;51.356;-2.906;2023-07-08T07:18:48;6.97;;;2.27;;
70369;SDS011;57790;51.356;-2.906;2023-07-08T07:21:50;7.70;;;2.63;;
70369;SDS011;57790;51.356;-2.906;2023-07-08T07:24:51;9.43;;;2.55;;
70369;SDS011;57790;51.356;-2.906;2023-07-08T07:27:51;8.90;;;2.17;;
70369;SDS011;57790;51.356;-2.906;2023-07-08T07:30:56;8.37;;;2.50;;
70369;SDS011;57790;51.356;-2.906;2023-07-08T07:33:58;8.68;;;2.45;;
70369;SDS011;57790;51.356;-2.906;2023-07-08T07:37:00;8.00;;;2.20;;
70369;SDS011;57790;51.356;-2.906;2023-07-08T07:40:00;6.33;;;2.00;;
70369;SDS011;57790;51.356;-2.906;2023-07-08T07:43:01;6.73;;;2.00;;
70369;SDS011;57790;51.356;-2.906;2023-07-08T07:46:01;7.90;;;2.40;;
70369;SDS011;57790;51.356;-2.906;2023-07-08T07:49:05;7.18;;;2.30;;
70369;SDS011;57790;51.356;-2.906;2023-07-08T07:52:08;7.10;;;2.23;;
70369;SDS011;57790;51.356;-2.906;2023-07-08T07:55:10;6.10;;;1.90;;
70369;SDS011;57790;51.356;-2.906;2023-07-08T07:58:11;7.25;;;1.90;;
70369;SDS011;57790;51.356;-2.906;2023-07-08T08:01:11;7.10;;;2.10;;
70369;SDS011;57790;51.356;-2.906;2023-07-08T08:04:13;6.53;;;2.05;;
70369;SDS011;57790;51.356;-2.906;2023-07-08T08:07:13;7.57;;;2.07;;
70369;SDS011;57790;51.356;-2.906;2023-07-08T08:10:14;6.83;;;1.97;;
70369;SDS011;57790;51.356;-2.906;2023-07-08T08:13:15;7.47;;;2.00;;
70369;SDS011;57790;51.356;-2.906;2023-07-08T08:16:15;7.77;;;2.00;;
70369;SDS011;57790;51.356;-2.906;2023-07-08T08:19:15;6.57;;;1.90;;
70369;SDS011;57790;51.356;-2.906;2023-07-08T08:22:16;5.67;;;1.60;;
70369;SDS011;57790;51.356;-2.906;2023-07-08T08:25:17;6.40;;;1.83;;
70369;SDS011;57790;51.356;-2.906;2023-07-08T08:28:18;7.40;;;1.80;;
70369;SDS011;57790;51.356;-2.906;2023-07-08T08:31:19;6.77;;;1.70;;
70369;SDS011;57790;51.356;-2.906;2023-07-08T08:34:19;6.75;;;1.55;;
70369;SDS011;57790;51.356;-2.906;2023-07-08T08:37:20;7.60;;;1.80;;
70369;SDS011;57790;51.356;-2.906;2023-07-08T08:40:20;6.20;;;2.00;;
70369;SDS011;57790;51.356;-2.906;2023-07-08T08:43:23;5.30;;;1.83;;
70369;SDS011;57790;51.356;-2.906;2023-07-08T08:49:47;6.43;;;1.92;;
70369;SDS011;57790;51.356;-2.906;2023-07-08T08:53:02;5.82;;;1.95;;
70369;SDS011;57790;51.356;-2.906;2023-07-08T08:56:08;6.47;;;1.83;;
70369;SDS011;57790;51.356;-2.906;2023-07-08T08:59:29;5.75;;;1.70;;
70369;SDS011;57790;51.356;-2.906;2023-07-08T09:02:51;4.85;;;1.40;;
70369;SDS011;57790;51.356;-2.906;2023-07-08T09:06:12;5.63;;;1.70;;
70369;SDS011;57790;51.356;-2.906;2023-07-08T09:09:18;5.38;;;1.92;;
70369;SDS011;57790;51.356;-2.906;2023-07-08T09:12:25;7.30;;;1.83;;
70369;SDS011;57790;51.356;-2.906;2023-07-08T09:15:28;6.28;;;1.70;;
70369;SDS011;57790;51.356;-2.906;2023-07-08T09:18:31;6.27;;;1.83;;
70369;SDS011;57790;51.356;-2.906;2023-07-08T09:21:39;7.28;;;1.95;;
70369;SDS011;57790;51.356;-2.906;2023-07-08T09:27:54;8.57;;;2.08;;
70369;SDS011;57790;51.356;-2.906;2023-07-08T09:30:55;6.43;;;1.93;;
70369;SDS011;57790;51.356;-2.906;2023-07-08T09:37:41;9.57;;;2.00;;
70369;SDS011;57790;51.356;-2.906;2023-07-08T09:40:47;7.35;;;1.98;;
70369;SDS011;57790;51.356;-2.906;2023-07-08T09:43:49;6.35;;;1.90;;
70369;SDS011;57790;51.356;-2.906;2023-07-08T09:46:50;6.80;;;1.90;;
70369;SDS011;57790;51.356;-2.906;2023-07-08T09:49:51;7.50;;;2.27;;
70369;SDS011;57790;51.356;-2.906;2023-07-08T09:52:53;8.10;;;2.20;;
70369;SDS011;57790;51.356;-2.906;2023-07-08T09:55:58;8.18;;;2.20;;
70369;SDS011;57790;51.356;-2.906;2023-07-08T09:58:59;7.47;;;2.03;;
70369;SDS011;57790;51.356;-2.906;2023-07-08T10:02:02;7.77;;;1.80;;
70369;SDS011;57790;51.356;-2.906;2023-07-08T10:05:25;9.23;;;2.55;;
70369;SDS011;57790;51.356;-2.906;2023-07-08T10:08:41;8.98;;;2.25;;
70369;SDS011;57790;51.356;-2.906;2023-07-08T10:11:44;6.90;;;1.98;;
70369;SDS011;57790;51.356;-2.906;2023-07-08T10:18:31;8.77;;;2.13;;
70369;SDS011;57790;51.356;-2.906;2023-07-08T10:21:37;7.47;;;1.83;;
70369;SDS011;57790;51.356;-2.906;2023-07-08T10:24:48;6.57;;;2.00;;
70369;SDS011;57790;51.356;-2.906;2023-07-08T10:28:19;7.80;;;2.05;;
70369;SDS011;57790;51.356;-2.906;2023-07-08T10:35:16;8.02;;;1.98;;
70369;SDS011;57790;51.356;-2.906;2023-07-08T10:41:54;8.13;;;2.20;;
70369;SDS011;57790;51.356;-2.906;2023-07-08T10:45:12;8.82;;;2.05;;
70369;SDS011;57790;51.356;-2.906;2023-07-08T10:52:18;7.63;;;2.17;;
70369;SDS011;57790;51.356;-2.906;2023-07-08T11:06:18;7.70;;;2.20;;
70369;SDS011;57790;51.356;-2.906;2023-07-08T11:09:30;10.30;;;2.10;;
70369;SDS011;57790;51.356;-2.906;2023-07-08T11:16:19;8.67;;;2.37;;
70369;SDS011;57790;51.356;-2.906;2023-07-08T11:19:38;10.20;;;2.55;;
70369;SDS011;57790;51.356;-2.906;2023-07-08T11:22:46;8.75;;;2.00;;
70369;SDS011;57790;51.356;-2.906;2023-07-08T11:25:52;8.75;;;1.90;;
70369;SDS011;57790;51.356;-2.906;2023-07-08T11:29:04;7.93;;;2.05;;
70369;SDS011;57790;51.356;-2.906;2023-07-08T11:32:17;8.70;;;2.37;;
70369;SDS011;57790;51.356;-2.906;2023-07-08T11:35:23;9.88;;;2.30;;
70369;SDS011;57790;51.356;-2.906;2023-07-08T11:38:31;10.60;;;2.95;;
70369;SDS011;57790;51.356;-2.906;2023-07-08T11:41:34;10.88;;;3.22;;
70369;SDS011;57790;51.356;-2.906;2023-07-08T11:44:34;10.60;;;2.90;;
70369;SDS011;57790;51.356;-2.906;2023-07-08T11:47:37;9.73;;;2.10;;
70369;SDS011;57790;51.356;-2.906;2023-07-08T11:50:40;9.95;;;2.50;;
70369;SDS011;57790;51.356;-2.906;2023-07-08T11:53:46;9.63;;;2.25;;
70369;SDS011;57790;51.356;-2.906;2023-07-08T11:56:59;11.07;;;2.35;;
70369;SDS011;57790;51.356;-2.906;2023-07-08T12:00:45;9.57;;;2.13;;
70369;SDS011;57790;51.356;-2.906;2023-07-08T12:03:34;10.85;;;2.42;;
70369;SDS011;57790;51.356;-2.906;2023-07-08T12:09:46;9.40;;;2.60;;
70369;SDS011;57790;51.356;-2.906;2023-07-08T12:12:48;9.70;;;2.40;;
70369;SDS011;57790;51.356;-2.906;2023-07-08T12:15:49;9.10;;;2.30;;
70369;SDS011;57790;51.356;-2.906;2023-07-08T12:18:50;8.38;;;2.10;;
70369;SDS011;57790;51.356;-2.906;2023-07-08T12:21:52;8.15;;;2.28;;
70369;SDS011;57790;51.356;-2.906;2023-07-08T12:24:53;8.43;;;2.07;;
70369;SDS011;57790;51.356;-2.906;2023-07-08T12:27:55;8.40;;;2.45;;
70369;SDS011;57790;51.356;-2.906;2023-07-08T12:30:55;9.80;;;2.47;;
70369;SDS011;57790;51.356;-2.906;2023-07-08T12:33:59;14.38;;;3.17;;
70369;SDS011;57790;51.356;-2.906;2023-07-08T12:37:00;10.80;;;2.60;;
70369;SDS011;57790;51.356;-2.906;2023-07-08T12:40:01;11.50;;;2.40;;
70369;SDS011;57790;51.356;-2.906;2023-07-08T12:43:07;10.55;;;2.58;;
70369;SDS011;57790;51.356;-2.906;2023-07-08T12:46:10;10.90;;;2.50;;
70369;SDS011;57790;51.356;-2.906;2023-07-08T12:49:11;9.07;;;2.40;;
70369;SDS011;57790;51.356;-2.906;2023-07-08T12:52:19;9.03;;;2.70;;
70369;SDS011;57790;51.356;-2.906;2023-07-08T12:55:21;10.88;;;3.00;;
70369;SDS011;57790;51.356;-2.906;2023-07-08T12:58:24;10.23;;;2.70;;
70369;SDS011;57790;51.356;-2.906;2023-07-08T13:01:28;11.30;;;3.00;;
70369;SDS011;57790;51.356;-2.906;2023-07-08T13:04:30;12.20;;;2.60;;
70369;SDS011;57790;51.356;-2.906;2023-07-08T13:10:40;11.02;;;2.45;;
70369;SDS011;57790;51.356;-2.906;2023-07-08T13:13:47;7.93;;;2.27;;
70369;SDS011;57790;51.356;-2.906;2023-07-08T13:16:50;8.93;;;2.75;;
70369;SDS011;57790;51.356;-2.906;2023-07-08T13:19:51;9.27;;;2.28;;
70369;SDS011;57790;51.356;-2.906;2023-07-08T13:22:54;9.10;;;2.77;;
70369;SDS011;57790;51.356;-2.906;2023-07-08T13:25:58;7.93;;;2.40;;
70369;SDS011;57790;51.356;-2.906;2023-07-08T13:29:05;11.00;;;2.42;;
70369;SDS011;57790;51.356;-2.906;2023-07-08T13:32:11;7.90;;;2.00;;
70369;SDS011;57790;51.356;-2.906;2023-07-08T13:35:28;7.80;;;2.30;;
70369;SDS011;57790;51.356;-2.906;2023-07-08T13:38:37;8.13;;;2.23;;
70369;SDS011;57790;51.356;-2.906;2023-07-08T13:41:41;7.20;;;2.17;;
70369;SDS011;57790;51.356;-2.906;2023-07-08T13:44:44;7.90;;;1.83;;
70369;SDS011;57790;51.356;-2.906;2023-07-08T13:47:56;7.82;;;2.08;;
70369;SDS011;57790;51.356;-2.906;2023-07-08T13:51:08;8.27;;;2.30;;
70369;SDS011;57790;51.356;-2.906;2023-07-08T13:54:13;6.30;;;1.87;;
70369;SDS011;57790;51.356;-2.906;2023-07-08T13:57:29;6.75;;;1.85;;
70369;SDS011;57790;51.356;-2.906;2023-07-08T14:00:33;7.60;;;1.85;;
70369;SDS011;57790;51.356;-2.906;2023-07-08T14:03:33;8.17;;;1.87;;
70369;SDS011;57790;51.356;-2.906;2023-07-08T14:06:37;6.93;;;1.90;;
70369;SDS011;57790;51.356;-2.906;2023-07-08T14:09:38;5.93;;;1.90;;
70369;SDS011;57790;51.356;-2.906;2023-07-08T14:12:39;8.70;;;1.90;;
70369;SDS011;57790;51.356;-2.906;2023-07-08T14:15:39;5.32;;;1.70;;
70369;SDS011;57790;51.356;-2.906;2023-07-08T14:18:40;4.67;;;1.40;;
70369;SDS011;57790;51.356;-2.906;2023-07-08T14:21:40;5.07;;;1.70;;
70369;SDS011;57790;51.356;-2.906;2023-07-08T14:24:41;6.30;;;1.70;;
70369;SDS011;57790;51.356;-2.906;2023-07-08T14:27:42;6.05;;;1.80;;
70369;SDS011;57790;51.356;-2.906;2023-07-08T14:30:46;5.57;;;1.50;;
70369;SDS011;57790;51.356;-2.906;2023-07-08T14:33:48;5.45;;;1.50;;
70369;SDS011;57790;51.356;-2.906;2023-07-08T14:37:00;4.85;;;1.55;;
70369;SDS011;57790;51.356;-2.906;2023-07-08T14:40:05;5.63;;;1.60;;
70369;SDS011;57790;51.356;-2.906;2023-07-08T14:43:26;5.35;;;1.50;;
70369;SDS011;57790;51.356;-2.906;2023-07-08T14:46:28;5.03;;;1.50;;
70369;SDS011;57790;51.356;-2.906;2023-07-08T14:49:29;5.67;;;1.53;;
70369;SDS011;57790;51.356;-2.906;2023-07-08T14:52:29;5.57;;;1.33;;
70369;SDS011;57790;51.356;-2.906;2023-07-08T14:55:30;4.87;;;1.53;;
70369;SDS011;57790;51.356;-2.906;2023-07-08T14:58:31;6.40;;;1.90;;
70369;SDS011;57790;51.356;-2.906;2023-07-08T15:01:33;6.93;;;2.08;;
70369;SDS011;57790;51.356;-2.906;2023-07-08T15:04:33;6.27;;;1.80;;
70369;SDS011;57790;51.356;-2.906;2023-07-08T15:07:33;5.90;;;1.90;;
70369;SDS011;57790;51.356;-2.906;2023-07-08T15:10:34;10.02;;;2.10;;
70369;SDS011;57790;51.356;-2.906;2023-07-08T15:13:36;5.50;;;1.87;;
70369;SDS011;57790;51.356;-2.906;2023-07-08T15:16:36;8.15;;;2.10;;
70369;SDS011;57790;51.356;-2.906;2023-07-08T15:19:37;6.43;;;2.00;;
70369;SDS011;57790;51.356;-2.906;2023-07-08T15:22:38;7.25;;;2.10;;
70369;SDS011;57790;51.356;-2.906;2023-07-08T15:25:43;8.70;;;2.22;;
70369;SDS011;57790;51.356;-2.906;2023-07-08T15:28:45;5.77;;;1.70;;
70369;SDS011;57790;51.356;-2.906;2023-07-08T15:31:48;6.47;;;1.95;;
70369;SDS011;57790;51.356;-2.906;2023-07-08T15:34:48;6.53;;;1.70;;
70369;SDS011;57790;51.356;-2.906;2023-07-08T15:37:49;5.93;;;1.50;;
70369;SDS011;57790;51.356;-2.906;2023-07-08T15:40:49;5.03;;;1.53;;
70369;SDS011;57790;51.356;-2.906;2023-07-08T15:43:52;6.73;;;1.50;;
70369;SDS011;57790;51.356;-2.906;2023-07-08T15:46:54;3.45;;;1.17;;
70369;SDS011;57790;51.356;-2.906;2023-07-08T15:49:55;3.92;;;1.50;;
70369;SDS011;57790;51.356;-2.906;2023-07-08T15:52:55;3.57;;;1.30;;
70369;SDS011;57790;51.356;-2.906;2023-07-08T15:55:56;4.10;;;1.13;;
70369;SDS011;57790;51.356;-2.906;2023-07-08T15:58:57;4.90;;;1.40;;
70369;SDS011;57790;51.356;-2.906;2023-07-08T16:01:59;5.13;;;1.67;;
70369;SDS011;57790;51.356;-2.906;2023-07-08T16:05:04;5.37;;;1.67;;
70369;SDS011;57790;51.356;-2.906;2023-07-08T16:08:05;4.50;;;1.42;;
70369;SDS011;57790;51.356;-2.906;2023-07-08T16:11:27;4.13;;;1.40;;
70369;SDS011;57790;51.356;-2.906;2023-07-08T16:14:30;6.75;;;1.42;;
70369;SDS011;57790;51.356;-2.906;2023-07-08T16:17:33;5.90;;;1.60;;
70369;SDS011;57790;51.356;-2.906;2023-07-08T16:20:39;5.45;;;1.40;;
70369;SDS011;57790;51.356;-2.906;2023-07-08T16:23:39;4.93;;;1.50;;
70369;SDS011;57790;51.356;-2.906;2023-07-08T16:26:40;8.48;;;2.17;;
70369;SDS011;57790;51.356;-2.906;2023-07-08T16:29:40;4.97;;;1.23;;
70369;SDS011;57790;51.356;-2.906;2023-07-08T16:32:41;7.18;;;1.60;;
70369;SDS011;57790;51.356;-2.906;2023-07-08T16:35:42;5.40;;;1.55;;
70369;SDS011;57790;51.356;-2.906;2023-07-08T16:38:43;6.33;;;1.90;;
70369;SDS011;57790;51.356;-2.906;2023-07-08T16:41:44;6.57;;;1.73;;
70369;SDS011;57790;51.356;-2.906;2023-07-08T16:44:44;4.13;;;1.50;;
70369;SDS011;57790;51.356;-2.906;2023-07-08T16:47:45;4.90;;;1.20;;
70369;SDS011;57790;51.356;-2.906;2023-07-08T16:50:46;4.03;;;1.13;;
70369;SDS011;57790;51.356;-2.906;2023-07-08T16:53:47;4.87;;;1.40;;
70369;SDS011;57790;51.356;-2.906;2023-07-08T16:56:48;5.50;;;1.27;;
70369;SDS011;57790;51.356;-2.906;2023-07-08T16:59:49;6.73;;;1.53;;
70369;SDS011;57790;51.356;-2.906;2023-07-08T17:02:49;6.85;;;1.40;;
70369;SDS011;57790;51.356;-2.906;2023-07-08T17:05:50;7.97;;;1.70;;
70369;SDS011;57790;51.356;-2.906;2023-07-08T17:08:51;6.70;;;1.70;;
70369;SDS011;57790;51.356;-2.906;2023-07-08T17:11:51;5.57;;;1.33;;
70369;SDS011;57790;51.356;-2.906;2023-07-08T17:14:52;6.77;;;1.47;;
70369;SDS011;57790;51.356;-2.906;2023-07-08T17:17:52;5.40;;;1.57;;
70369;SDS011;57790;51.356;-2.906;2023-07-08T17:20:58;7.70;;;1.80;;
70369;SDS011;57790;51.356;-2.906;2023-07-08T17:23:59;7.60;;;1.85;;
70369;SDS011;57790;51.356;-2.906;2023-07-08T17:27:00;6.63;;;1.53;;
70369;SDS011;57790;51.356;-2.906;2023-07-08T17:30:00;8.68;;;1.70;;
70369;SDS011;57790;51.356;-2.906;2023-07-08T17:33:01;5.93;;;1.23;;
70369;SDS011;57790;51.356;-2.906;2023-07-08T17:36:07;5.95;;;1.70;;
70369;SDS011;57790;51.356;-2.906;2023-07-08T17:39:10;5.80;;;1.47;;
70369;SDS011;57790;51.356;-2.906;2023-07-08T17:42:10;7.95;;;1.45;;
70369;SDS011;57790;51.356;-2.906;2023-07-08T17:45:12;8.13;;;1.43;;
70369;SDS011;57790;51.356;-2.906;2023-07-08T17:48:20;6.50;;;1.35;;
70369;SDS011;57790;51.356;-2.906;2023-07-08T17:51:24;7.57;;;1.37;;
70369;SDS011;57790;51.356;-2.906;2023-07-08T17:54:26;7.53;;;1.85;;
70369;SDS011;57790;51.356;-2.906;2023-07-08T17:57:30;7.90;;;1.48;;
70369;SDS011;57790;51.356;-2.906;2023-07-08T18:00:31;9.63;;;1.60;;
70369;SDS011;57790;51.356;-2.906;2023-07-08T18:03:31;7.17;;;1.50;;
70369;SDS011;57790;51.356;-2.906;2023-07-08T18:06:31;8.50;;;1.43;;
70369;SDS011;57790;51.356;-2.906;2023-07-08T18:09:32;9.98;;;1.60;;
70369;SDS011;57790;51.356;-2.906;2023-07-08T18:12:33;9.93;;;1.90;;
70369;SDS011;57790;51.356;-2.906;2023-07-08T18:15:36;7.95;;;1.70;;
70369;SDS011;57790;51.356;-2.906;2023-07-08T18:18:39;10.43;;;1.75;;
70369;SDS011;57790;51.356;-2.906;2023-07-08T18:21:40;9.37;;;1.60;;
70369;SDS011;57790;51.356;-2.906;2023-07-08T18:24:40;9.07;;;1.87;;
70369;SDS011;57790;51.356;-2.906;2023-07-08T18:27:41;9.40;;;1.23;;
70369;SDS011;57790;51.356;-2.906;2023-07-08T18:30:42;7.03;;;1.23;;
70369;SDS011;57790;51.356;-2.906;2023-07-08T18:33:43;10.65;;;1.65;;
70369;SDS011;57790;51.356;-2.906;2023-07-08T18:36:45;9.05;;;1.63;;
70369;SDS011;57790;51.356;-2.906;2023-07-08T18:39:45;9.50;;;1.70;;
70369;SDS011;57790;51.356;-2.906;2023-07-08T18:43:05;6.40;;;1.30;;
70369;SDS011;57790;51.356;-2.906;2023-07-08T18:46:11;9.05;;;1.48;;
70369;SDS011;57790;51.356;-2.906;2023-07-08T18:49:12;9.95;;;1.50;;